createdAt,value
2016-09-04T00:00:45.049Z,58.20
2016-09-04T00:01:28.513Z,58.10
2016-09-04T00:02:23.113Z,58.20
2016-09-04T00:03:28.774Z,58.20
2016-09-04T00:04:35.414Z,58.20
2016-09-04T00:05:28.546Z,58.20
2016-09-04T00:06:34.701Z,58.20
2016-09-04T00:07:28.927Z,58.20
2016-09-04T00:08:27.919Z,58.30
2016-09-04T00:09:29.257Z,58.30
2016-09-04T00:10:25.004Z,58.20
2016-09-04T00:11:32.394Z,58.30
2016-09-04T00:12:33.381Z,58.20
2016-09-04T00:13:30.577Z,58.20
2016-09-04T00:14:29.405Z,58.30
2016-09-04T00:15:27.554Z,58.30
2016-09-04T00:16:28.528Z,58.20
2016-09-04T00:17:32.627Z,58.20
2016-09-04T00:18:42.272Z,58.20
2016-09-04T00:19:28.842Z,58.00
2016-09-04T00:20:28.601Z,57.30
2016-09-04T00:21:29.133Z,57.10
2016-09-04T00:22:33.860Z,57.50
2016-09-04T00:23:31.607Z,57.50
2016-09-04T00:24:29.075Z,57.70
2016-09-04T00:25:28.561Z,58.00
2016-09-04T00:26:27.031Z,57.80
2016-09-04T00:27:37.226Z,57.90
2016-09-04T00:28:28.829Z,57.70
2016-09-04T00:29:31.607Z,57.70
2016-09-04T00:30:28.822Z,57.80
2016-09-04T00:31:43.586Z,57.70
2016-09-04T00:32:31.346Z,57.50
2016-09-04T00:33:29.176Z,57.60
2016-09-04T00:34:45.857Z,57.80
2016-09-04T00:35:37.779Z,57.90
2016-09-04T00:36:31.440Z,57.80
2016-09-04T00:37:33.614Z,57.20
2016-09-04T00:38:28.700Z,57.20
2016-09-04T00:39:33.315Z,57.20
2016-09-04T00:40:33.255Z,57.30
2016-09-04T00:41:29.717Z,57.10
2016-09-04T00:42:23.805Z,56.90
2016-09-04T00:43:39.084Z,57.00
2016-09-04T00:44:36.803Z,56.90
2016-09-04T00:45:20.168Z,57.10
2016-09-04T00:46:21.800Z,is
2016-09-04T00:47:34.387Z,57.00
2016-09-04T00:48:34.079Z,56.70
2016-09-04T00:49:27.919Z,57.20
2016-09-04T00:50:33.383Z,is
2016-09-04T00:51:24.437Z,56.70
2016-09-04T00:52:47.200Z,56.90
2016-09-04T00:53:21.955Z,57.00
2016-09-04T00:54:29.285Z,57.00
2016-09-04T00:55:29.073Z,56.70
2016-09-04T00:56:29.620Z,56.70
2016-09-04T00:57:27.462Z,56.80
2016-09-04T00:58:28.447Z,56.80
2016-09-04T00:59:28.370Z,56.70
2016-09-04T01:00:23.285Z,56.90
2016-09-04T01:01:34.090Z,56.50
2016-09-04T01:02:30.658Z,56.80
2016-09-04T01:03:44.625Z,56.50
2016-09-04T01:04:33.091Z,56.60
2016-09-04T01:05:23.708Z,56.70
2016-09-04T01:06:27.420Z,56.50
2016-09-04T01:07:32.463Z,56.40
2016-09-04T01:08:32.412Z,56.50
2016-09-04T01:09:28.446Z,56.40
2016-09-04T01:10:22.894Z,56.50
2016-09-04T01:11:14.804Z,56.40
2016-09-04T01:12:29.051Z,56.40
2016-09-04T01:13:29.088Z,56.30
2016-09-04T01:14:28.603Z,56.40
2016-09-04T01:15:28.975Z,56.40
2016-09-04T01:16:33.135Z,56.40
2016-09-04T01:17:44.573Z,55.80
2016-09-04T01:18:48.353Z,56.40
2016-09-04T01:19:47.798Z,56.50
2016-09-04T01:20:32.245Z,56.30
2016-09-04T01:21:45.321Z,56.20
2016-09-04T01:22:28.453Z,56.10
2016-09-04T01:23:38.477Z,56.30
2016-09-04T01:24:29.463Z,56.40
2016-09-04T01:25:30.455Z,56.30
2016-09-04T01:26:27.347Z,56.20
2016-09-04T01:27:48.147Z,56.20
2016-09-04T01:28:24.473Z,56.20
2016-09-04T01:29:33.676Z,56.10
2016-09-04T01:30:39.170Z,56.10
2016-09-04T01:31:34.153Z,56.20
2016-09-04T01:32:27.311Z,56.10
2016-09-04T01:33:29.430Z,56.00
2016-09-04T01:34:28.177Z,is
2016-09-04T01:35:28.891Z,56.10
2016-09-04T01:36:33.399Z,56.40
2016-09-04T01:37:34.237Z,56.60
2016-09-04T01:38:26.222Z,56.20
2016-09-04T01:39:28.132Z,is
2016-09-04T01:40:27.900Z,56.10
2016-09-04T01:41:39.139Z,56.40
2016-09-04T01:42:28.280Z,56.10
2016-09-04T01:43:32.777Z,56.20
2016-09-04T01:44:32.079Z,56.40
2016-09-04T01:45:28.924Z,56.10
2016-09-04T01:46:33.655Z,56.40
2016-09-04T01:47:33.429Z,56.40
2016-09-04T01:48:32.833Z,56.20
2016-09-04T01:49:37.591Z,56.10
2016-09-04T01:50:32.089Z,55.70
2016-09-04T01:51:32.144Z,is
2016-09-04T01:52:45.150Z,56.30
2016-09-04T01:53:28.506Z,56.10
2016-09-04T01:54:31.921Z,56.00
2016-09-04T01:55:27.788Z,56.10
2016-09-04T01:56:30.904Z,56.10
2016-09-04T01:57:28.974Z,56.40
2016-09-04T01:58:45.473Z,56.10
2016-09-04T01:59:28.226Z,56.00
2016-09-04T02:00:33.146Z,56.00
2016-09-04T02:01:37.348Z,56.00
2016-09-04T02:02:39.446Z,56.00
2016-09-04T02:03:29.052Z,56.10
2016-09-04T02:04:33.885Z,56.00
2016-09-04T02:05:28.734Z,55.90
2016-09-04T02:06:28.609Z,55.90
2016-09-04T02:07:29.456Z,55.80
2016-09-04T02:08:29.157Z,56.20
2016-09-04T02:09:27.775Z,56.10
2016-09-04T02:10:29.120Z,55.00
2016-09-04T02:11:31.647Z,56.00
2016-09-04T02:12:28.791Z,56.00
2016-09-04T02:13:32.229Z,55.80
2016-09-04T02:14:31.685Z,56.00
2016-09-04T02:15:28.061Z,56.00
2016-09-04T02:16:24.675Z,55.70
2016-09-04T02:17:29.059Z,55.80
2016-09-04T02:18:28.807Z,55.90
2016-09-04T02:19:28.935Z,55.90
2016-09-04T02:20:29.522Z,56.00
2016-09-04T02:21:24.433Z,55.70
2016-09-04T02:22:28.695Z,56.00
2016-09-04T02:23:32.912Z,56.00
2016-09-04T02:24:34.073Z,56.20
2016-09-04T02:25:28.911Z,55.80
2016-09-04T02:26:28.708Z,55.60
2016-09-04T02:27:31.056Z,55.70
2016-09-04T02:28:27.304Z,is
2016-09-04T02:29:33.087Z,55.60
2016-09-04T02:30:28.233Z,55.90
2016-09-04T02:31:29.063Z,55.60
2016-09-04T02:32:37.465Z,55.80
2016-09-04T02:33:29.096Z,55.70
2016-09-04T02:34:32.466Z,56.10
2016-09-04T02:35:29.380Z,56.20
2016-09-04T02:36:28.785Z,55.80
2016-09-04T02:37:29.205Z,55.50
2016-09-04T02:38:28.659Z,55.50
2016-09-04T02:39:28.777Z,55.70
2016-09-04T02:40:31.565Z,55.70
2016-09-04T02:41:28.723Z,55.80
2016-09-04T02:42:37.568Z,55.50
2016-09-04T02:43:28.308Z,55.50
2016-09-04T02:44:33.389Z,55.70
2016-09-04T02:45:24.632Z,55.50
2016-09-04T02:46:43.947Z,55.60
2016-09-04T02:47:27.084Z,55.50
2016-09-04T02:48:28.648Z,55.50
2016-09-04T02:49:34.246Z,55.60
2016-09-04T02:50:29.699Z,55.60
2016-09-04T02:51:33.783Z,55.50
2016-09-04T02:52:29.376Z,55.40
2016-09-04T02:53:44.306Z,55.50
2016-09-04T02:54:37.678Z,55.50
2016-09-04T02:55:35.155Z,55.40
2016-09-04T02:56:29.362Z,55.60
2016-09-04T02:57:28.512Z,55.30
2016-09-04T02:58:28.299Z,55.40
2016-09-04T02:59:27.312Z,55.50
2016-09-04T03:00:28.405Z,55.30
2016-09-04T03:01:27.500Z,55.40
2016-09-04T03:02:33.051Z,is
2016-09-04T03:03:36.807Z,55.40
2016-09-04T03:04:28.529Z,55.30
2016-09-04T03:05:27.516Z,55.30
2016-09-04T03:06:23.472Z,55.20
2016-09-04T03:07:29.014Z,55.50
2016-09-04T03:08:32.940Z,55.10
2016-09-04T03:09:14.221Z,55.20
2016-09-04T03:10:31.474Z,55.10
2016-09-04T03:11:27.424Z,55.30
2016-09-04T03:12:31.570Z,55.40
2016-09-04T03:13:27.240Z,is
2016-09-04T03:14:28.322Z,55.20
2016-09-04T03:15:27.909Z,55.10
2016-09-04T03:16:29.230Z,55.20
2016-09-04T03:17:29.391Z,55.20
2016-09-04T03:18:37.839Z,55.30
2016-09-04T03:19:27.604Z,55.20
2016-09-04T03:20:32.798Z,55.20
2016-09-04T03:21:33.297Z,55.10
2016-09-04T03:22:33.629Z,55.20
2016-09-04T03:23:28.923Z,55.20
2016-09-04T03:24:37.638Z,55.20
2016-09-04T03:25:29.085Z,55.10
2016-09-04T03:26:33.267Z,55.20
2016-09-04T03:27:29.396Z,55.10
2016-09-04T03:28:29.128Z,55.60
2016-09-04T03:29:28.848Z,55.20
2016-09-04T03:30:28.656Z,55.20
2016-09-04T03:31:28.978Z,55.10
2016-09-04T03:32:33.970Z,55.20
2016-09-04T03:33:34.094Z,55.20
2016-09-04T03:34:32.215Z,55.10
2016-09-04T03:35:29.259Z,55.10
2016-09-04T03:36:28.547Z,55.20
2016-09-04T03:37:28.898Z,55.10
2016-09-04T03:38:28.418Z,55.20
2016-09-04T03:39:27.872Z,55.10
2016-09-04T03:40:23.479Z,55.30
2016-09-04T03:41:29.147Z,55.20
2016-09-04T03:42:29.175Z,55.20
2016-09-04T03:43:33.218Z,55.10
2016-09-04T03:44:29.126Z,55.30
2016-09-04T03:45:31.854Z,55.20
2016-09-04T03:46:29.185Z,55.30
2016-09-04T03:47:28.956Z,55.30
2016-09-04T03:48:33.692Z,55.30
2016-09-04T03:49:29.834Z,55.10
2016-09-04T03:50:14.276Z,55.10
2016-09-04T03:51:33.031Z,55.30
2016-09-04T03:52:28.114Z,55.20
2016-09-04T03:53:29.029Z,55.20
2016-09-04T03:54:33.624Z,55.20
2016-09-04T03:55:34.173Z,55.20
2016-09-04T03:56:29.591Z,55.20
2016-09-04T03:57:33.129Z,55.50
2016-09-04T03:58:29.275Z,55.20
2016-09-04T03:59:29.583Z,55.20
2016-09-04T04:00:29.111Z,55.20
2016-09-04T04:01:28.228Z,55.30
2016-09-04T04:02:29.558Z,55.30
2016-09-04T04:03:28.977Z,55.20
2016-09-04T04:04:33.569Z,55.40
2016-09-04T04:05:33.555Z,55.30
2016-09-04T04:06:32.874Z,55.40
2016-09-04T04:07:29.141Z,55.50
2016-09-04T04:08:34.624Z,55.50
2016-09-04T04:09:33.058Z,55.30
2016-09-04T04:10:29.178Z,55.40
2016-09-04T04:11:27.014Z,55.40
2016-09-04T04:12:32.643Z,55.20
2016-09-04T04:13:29.569Z,55.40
2016-09-04T04:14:28.471Z,55.20
2016-09-04T04:15:37.401Z,55.30
2016-09-04T04:16:27.594Z,55.30
2016-09-04T04:17:32.571Z,55.40
2016-09-04T04:18:23.291Z,55.30
2016-09-04T04:19:26.369Z,55.50
2016-09-04T04:20:29.152Z,55.40
2016-09-04T04:21:33.603Z,55.30
2016-09-04T04:22:28.593Z,55.30
2016-09-04T04:23:46.049Z,55.10
2016-09-04T04:24:40.777Z,55.20
2016-09-04T04:25:51.605Z,is
2016-09-04T04:26:30.058Z,55.10
2016-09-04T04:27:23.797Z,55.30
2016-09-04T04:28:28.657Z,55.40
2016-09-04T04:29:14.702Z,55.30
2016-09-04T04:30:28.352Z,55.00
2016-09-04T04:31:27.638Z,55.00
2016-09-04T04:32:27.527Z,55.00
2016-09-04T04:33:29.088Z,55.00
2016-09-04T04:34:28.586Z,54.90
2016-09-04T04:35:44.494Z,55.00
2016-09-04T04:36:28.400Z,55.20
2016-09-04T04:37:33.076Z,55.20
2016-09-04T04:38:29.338Z,55.30
2016-09-04T04:39:28.662Z,55.30
2016-09-04T04:40:45.306Z,55.30
2016-09-04T04:41:25.792Z,55.10
2016-09-04T04:42:13.883Z,55.40
2016-09-04T04:43:28.659Z,55.00
2016-09-04T04:44:28.486Z,55.10
2016-09-04T04:45:29.162Z,55.40
2016-09-04T04:46:33.778Z,54.90
2016-09-04T04:47:33.148Z,54.10
2016-09-04T04:48:31.681Z,55.00
2016-09-04T04:49:33.076Z,55.00
2016-09-04T04:50:27.273Z,55.10
2016-09-04T04:51:33.499Z,55.00
2016-09-04T04:52:34.324Z,56.00
2016-09-04T04:53:28.785Z,55.50
2016-09-04T04:54:37.350Z,55.00
2016-09-04T04:55:28.941Z,55.10
2016-09-04T04:56:29.280Z,55.10
2016-09-04T04:57:29.299Z,55.50
2016-09-04T04:58:29.094Z,55.70
2016-09-04T04:59:31.193Z,55.40
2016-09-04T05:00:28.450Z,55.30
2016-09-04T05:01:44.851Z,55.40
2016-09-04T05:02:33.492Z,55.30
2016-09-04T05:03:27.736Z,is
2016-09-04T05:04:29.017Z,55.20
2016-09-04T05:05:29.563Z,55.00
2016-09-04T05:06:28.528Z,55.00
2016-09-04T05:07:28.397Z,55.50
2016-09-04T05:08:14.836Z,55.10
2016-09-04T05:09:28.750Z,55.00
2016-09-04T05:10:33.599Z,54.70
2016-09-04T05:11:28.421Z,55.60
2016-09-04T05:12:34.059Z,55.10
2016-09-04T05:13:32.808Z,55.40
2016-09-04T05:14:28.357Z,55.50
2016-09-04T05:15:15.873Z,55.10
2016-09-04T05:16:29.098Z,55.20
2016-09-04T05:17:33.712Z,54.90
2016-09-04T05:18:35.049Z,55.00
2016-09-04T05:19:33.194Z,55.30
2016-09-04T05:20:33.599Z,55.10
2016-09-04T05:21:27.203Z,is
2016-09-04T05:22:28.168Z,55.10
2016-09-04T05:23:48.512Z,55.00
2016-09-04T05:24:34.331Z,55.00
2016-09-04T05:25:28.422Z,55.10
2016-09-04T05:26:34.109Z,55.20
2016-09-04T05:27:33.939Z,55.00
2016-09-04T05:28:28.289Z,55.30
2016-09-04T05:29:32.583Z,54.90
2016-09-04T05:30:46.379Z,55.00
2016-09-04T05:31:29.984Z,55.20
2016-09-04T05:32:32.088Z,55.20
2016-09-04T05:33:28.980Z,55.20
2016-09-04T05:34:28.949Z,55.10
2016-09-04T05:35:31.577Z,55.10
2016-09-04T05:36:34.234Z,54.90
2016-09-04T05:37:27.562Z,54.90
2016-09-04T05:38:28.499Z,55.00
2016-09-04T05:39:33.102Z,55.00
2016-09-04T05:40:23.766Z,55.20
2016-09-04T05:41:32.643Z,55.00
2016-09-04T05:42:33.050Z,55.00
2016-09-04T05:43:28.921Z,54.90
2016-09-04T05:44:29.438Z,54.90
2016-09-04T05:45:16.720Z,55.00
2016-09-04T05:46:28.688Z,54.80
2016-09-04T05:47:29.266Z,55.00
2016-09-04T05:48:21.333Z,54.90
2016-09-04T05:49:29.252Z,55.50
2016-09-04T05:50:29.361Z,55.60
2016-09-04T05:51:29.000Z,55.00
2016-09-04T05:52:44.295Z,54.80
2016-09-04T05:53:28.849Z,55.10
2016-09-04T05:54:23.851Z,54.90
2016-09-04T05:55:28.849Z,55.00
2016-09-04T05:56:28.977Z,55.10
2016-09-04T05:57:33.586Z,is
2016-09-04T05:58:43.625Z,55.20
2016-09-04T05:59:27.871Z,54.80
2016-09-04T06:00:28.459Z,54.90
2016-09-04T06:01:29.354Z,is
2016-09-04T06:02:21.117Z,54.90
2016-09-04T06:03:30.710Z,is
2016-09-04T06:04:28.458Z,54.80
2016-09-04T06:05:28.853Z,54.60
2016-09-04T06:06:24.022Z,54.70
2016-09-04T06:07:29.343Z,54.60
2016-09-04T06:08:33.485Z,54.60
2016-09-04T06:09:26.067Z,54.60
2016-09-04T06:10:34.061Z,54.70
2016-09-04T06:11:28.935Z,54.60
2016-09-04T06:12:29.122Z,54.80
2016-09-04T06:13:29.690Z,54.50
2016-09-04T06:14:28.820Z,54.50
2016-09-04T06:15:22.839Z,54.50
2016-09-04T06:16:33.372Z,54.50
2016-09-04T06:17:28.153Z,54.50
2016-09-04T06:18:28.926Z,54.50
2016-09-04T06:19:32.708Z,54.50
2016-09-04T06:20:34.168Z,54.40
2016-09-04T06:21:12.142Z,is
2016-09-04T06:22:32.910Z,54.40
2016-09-04T06:23:32.603Z,is
2016-09-04T06:24:29.077Z,54.50
2016-09-04T06:25:32.715Z,53.80
2016-09-04T06:26:28.712Z,54.50
2016-09-04T06:27:32.494Z,54.30
2016-09-04T06:28:27.119Z,54.60
2016-09-04T06:29:29.128Z,54.70
2016-09-04T06:30:29.032Z,54.70
2016-09-04T06:31:31.532Z,54.90
2016-09-04T06:32:28.012Z,55.00
2016-09-04T06:33:31.753Z,55.30
2016-09-04T06:34:28.905Z,55.20
2016-09-04T06:35:28.434Z,55.10
2016-09-04T06:36:28.984Z,55.20
2016-09-04T06:37:33.587Z,55.20
2016-09-04T06:38:29.368Z,55.50
2016-09-04T06:39:31.785Z,55.30
2016-09-04T06:40:34.009Z,55.40
2016-09-04T06:41:28.496Z,55.60
2016-09-04T06:42:33.777Z,55.50
2016-09-04T06:43:33.282Z,55.40
2016-09-04T06:44:28.516Z,55.20
2016-09-04T06:45:28.890Z,55.30
2016-09-04T06:46:26.262Z,55.10
2016-09-04T06:47:28.591Z,55.10
2016-09-04T06:48:29.838Z,55.00
2016-09-04T06:49:23.437Z,55.00
2016-09-04T06:50:28.612Z,54.90
2016-09-04T06:51:29.269Z,55.00
2016-09-04T06:52:28.696Z,54.90
2016-09-04T06:53:28.224Z,54.80
2016-09-04T06:54:27.910Z,54.70
2016-09-04T06:55:34.151Z,54.70
2016-09-04T06:56:28.469Z,54.60
2016-09-04T06:57:30.375Z,53.80
2016-09-04T06:58:34.085Z,54.50
2016-09-04T06:59:37.633Z,54.60
2016-09-04T07:00:50.020Z,54.70
2016-09-04T07:01:30.760Z,54.80
2016-09-04T07:02:28.421Z,54.70
2016-09-04T07:03:37.770Z,54.60
2016-09-04T07:04:28.896Z,54.70
2016-09-04T07:05:32.968Z,54.70
2016-09-04T07:06:32.926Z,55.10
2016-09-04T07:07:28.966Z,55.00
2016-09-04T07:08:28.905Z,54.70
2016-09-04T07:09:38.165Z,54.90
2016-09-04T07:10:37.361Z,54.90
2016-09-04T07:11:33.287Z,55.00
2016-09-04T07:12:29.119Z,54.80
2016-09-04T07:13:29.436Z,54.00
2016-09-04T07:14:33.051Z,54.80
2016-09-04T07:15:33.061Z,54.80
2016-09-04T07:16:28.786Z,54.80
2016-09-04T07:17:34.354Z,54.90
2016-09-04T07:18:33.191Z,54.90
2016-09-04T07:19:28.720Z,55.00
2016-09-04T07:20:29.440Z,55.70
2016-09-04T07:21:29.364Z,55.10
2016-09-04T07:22:29.195Z,55.20
2016-09-04T07:23:30.517Z,55.20
2016-09-04T07:24:28.859Z,55.40
2016-09-04T07:25:31.750Z,55.40
2016-09-04T07:26:21.665Z,55.40
2016-09-04T07:27:28.479Z,55.50
2016-09-04T07:28:33.419Z,55.40
2016-09-04T07:29:34.153Z,55.50
2016-09-04T07:30:28.414Z,55.60
2016-09-04T07:31:27.832Z,is
2016-09-04T07:32:27.997Z,55.70
2016-09-04T07:33:24.090Z,55.70
2016-09-04T07:34:28.216Z,55.70
2016-09-04T07:35:28.013Z,55.70
2016-09-04T07:36:32.559Z,55.70
2016-09-04T07:37:29.202Z,55.80
2016-09-04T07:38:16.809Z,55.90
2016-09-04T07:39:20.792Z,55.90
2016-09-04T07:40:29.585Z,55.90
2016-09-04T07:41:28.055Z,55.90
2016-09-04T07:42:30.437Z,56.00
2016-09-04T07:43:32.549Z,56.00
2016-09-04T07:44:33.907Z,56.20
2016-09-04T07:45:30.346Z,56.00
2016-09-04T07:46:28.784Z,56.00
2016-09-04T07:47:28.912Z,56.10
2016-09-04T07:48:22.937Z,56.20
2016-09-04T07:49:28.467Z,56.30
2016-09-04T07:50:29.154Z,56.50
2016-09-04T07:51:28.274Z,56.20
2016-09-04T07:52:29.294Z,56.20
2016-09-04T07:53:31.647Z,56.20
2016-09-04T07:54:29.040Z,56.10
2016-09-04T07:55:29.068Z,56.10
2016-09-04T07:56:34.420Z,56.00
2016-09-04T07:57:28.989Z,56.10
2016-09-04T07:58:28.943Z,56.20
2016-09-04T07:59:32.024Z,56.20
2016-09-04T08:00:29.122Z,56.70
2016-09-04T08:01:22.606Z,56.10
2016-09-04T08:02:23.026Z,56.30
2016-09-04T08:03:28.422Z,56.30
2016-09-04T08:04:25.853Z,56.40
2016-09-04T08:05:50.107Z,is
2016-09-04T08:06:36.714Z,56.50
2016-09-04T08:07:31.872Z,56.50
2016-09-04T08:08:29.522Z,56.40
2016-09-04T08:09:28.567Z,56.40
2016-09-04T08:10:28.833Z,56.40
2016-09-04T08:11:31.306Z,56.50
2016-09-04T08:12:34.838Z,56.40
2016-09-04T08:13:28.941Z,56.40
2016-09-04T08:14:28.794Z,56.50
2016-09-04T08:15:34.152Z,56.40
2016-09-04T08:16:28.380Z,56.50
2016-09-04T08:17:26.303Z,56.50
2016-09-04T08:18:29.292Z,56.50
2016-09-04T08:19:25.887Z,56.70
2016-09-04T08:20:27.892Z,56.60
2016-09-04T08:21:29.059Z,56.60
2016-09-04T08:22:50.839Z,56.40
2016-09-04T08:23:31.633Z,56.60
2016-09-04T08:24:27.269Z,56.50
2016-09-04T08:25:33.693Z,56.50
2016-09-04T08:26:27.188Z,56.40
2016-09-04T08:27:33.900Z,56.70
2016-09-04T08:28:29.555Z,57.20
2016-09-04T08:29:32.903Z,56.70
2016-09-04T08:30:27.993Z,56.50
2016-09-04T08:31:33.472Z,56.70
2016-09-04T08:32:27.354Z,56.50
2016-09-04T08:33:44.781Z,is
2016-09-04T08:34:27.060Z,56.50
2016-09-04T08:35:28.953Z,56.40
2016-09-04T08:36:32.196Z,56.40
2016-09-04T08:37:32.210Z,56.50
2016-09-04T08:38:31.657Z,56.40
2016-09-04T08:39:18.742Z,56.40
2016-09-04T08:40:28.301Z,56.50
2016-09-04T08:41:31.140Z,56.40
2016-09-04T08:42:30.177Z,56.50
2016-09-04T08:43:20.937Z,56.40
2016-09-04T08:44:32.324Z,56.40
2016-09-04T08:45:28.001Z,56.50
2016-09-04T08:46:27.915Z,56.50
2016-09-04T08:47:25.736Z,56.40
2016-09-04T08:48:29.190Z,56.50
2016-09-04T08:49:33.073Z,56.50
2016-09-04T08:50:23.705Z,56.50
2016-09-04T08:51:21.553Z,56.50
2016-09-04T08:52:35.101Z,56.60
2016-09-04T08:53:28.277Z,56.60
2016-09-04T08:54:32.964Z,56.50
2016-09-04T08:55:29.404Z,56.50
2016-09-04T08:56:33.380Z,56.50
2016-09-04T08:57:34.187Z,56.60
2016-09-04T08:58:31.904Z,56.60
2016-09-04T08:59:28.256Z,56.60
2016-09-04T09:00:29.893Z,56.60
2016-09-04T09:01:28.505Z,56.60
2016-09-04T09:02:29.690Z,56.70
2016-09-04T09:03:28.975Z,56.70
2016-09-04T09:04:27.768Z,56.60
2016-09-04T09:05:33.144Z,56.60
2016-09-04T09:06:30.314Z,56.70
2016-09-04T09:07:46.437Z,56.60
2016-09-04T09:08:25.764Z,56.70
2016-09-04T09:09:28.736Z,56.60
2016-09-04T09:10:31.657Z,56.60
2016-09-04T09:11:23.226Z,56.60
2016-09-04T09:12:35.606Z,56.60
2016-09-04T09:13:29.640Z,56.60
2016-09-04T09:14:28.479Z,56.70
2016-09-04T09:15:32.500Z,56.60
2016-09-04T09:16:25.966Z,57.00
2016-09-04T09:17:28.086Z,56.70
2016-09-04T09:18:28.825Z,57.20
2016-09-04T09:19:21.458Z,56.90
2016-09-04T09:20:29.096Z,56.60
2016-09-04T09:21:34.095Z,56.60
2016-09-04T09:22:37.931Z,56.50
2016-09-04T09:23:24.496Z,56.40
2016-09-04T09:24:28.232Z,56.40
2016-09-04T09:25:27.296Z,56.40
2016-09-04T09:26:29.574Z,56.40
2016-09-04T09:27:28.866Z,56.30
2016-09-04T09:28:28.111Z,56.30
2016-09-04T09:29:28.211Z,56.30
2016-09-04T09:30:32.553Z,56.40
2016-09-04T09:31:28.500Z,56.30
2016-09-04T09:32:45.857Z,56.40
2016-09-04T09:33:26.403Z,56.40
2016-09-04T09:34:33.624Z,56.50
2016-09-04T09:35:37.808Z,56.30
2016-09-04T09:37:01.097Z,56.40
2016-09-04T09:37:32.746Z,is
2016-09-04T09:38:37.688Z,56.40
2016-09-04T09:39:22.948Z,56.50
2016-09-04T09:40:43.150Z,56.80
2016-09-04T09:41:27.796Z,56.60
2016-09-04T09:42:28.947Z,56.60
2016-09-04T09:43:29.858Z,56.70
2016-09-04T09:44:28.887Z,56.60
2016-09-04T09:45:29.094Z,56.50
2016-09-04T09:46:48.563Z,56.60
2016-09-04T09:47:31.213Z,56.40
2016-09-04T09:48:33.252Z,56.50
2016-09-04T09:49:30.084Z,56.50
2016-09-04T09:50:48.091Z,56.40
2016-09-04T09:51:27.695Z,56.40
2016-09-04T09:52:28.225Z,56.40
2016-09-04T09:53:29.581Z,56.30
2016-09-04T09:54:33.041Z,56.50
2016-09-04T09:55:27.906Z,56.60
2016-09-04T09:56:33.302Z,56.50
2016-09-04T09:57:37.817Z,56.40
2016-09-04T09:58:30.163Z,56.50
2016-09-04T09:59:27.987Z,56.60
2016-09-04T10:00:34.667Z,56.30
2016-09-04T10:01:31.711Z,56.30
2016-09-04T10:02:29.072Z,56.20
2016-09-04T10:03:28.342Z,56.40
2016-09-04T10:04:27.673Z,56.40
2016-09-04T10:05:47.186Z,56.20
2016-09-04T10:06:27.882Z,is
2016-09-04T10:07:29.191Z,56.20
2016-09-04T10:08:37.713Z,56.10
2016-09-04T10:09:33.272Z,56.10
2016-09-04T10:10:22.413Z,56.10
2016-09-04T10:11:28.264Z,56.10
2016-09-04T10:12:28.970Z,56.10
2016-09-04T10:13:33.391Z,56.20
2016-09-04T10:14:27.603Z,56.10
2016-09-04T10:15:37.719Z,56.10
2016-09-04T10:16:30.831Z,56.10
2016-09-04T10:17:34.070Z,56.00
2016-09-04T10:18:33.135Z,56.00
2016-09-04T10:19:27.655Z,56.00
2016-09-04T10:20:28.633Z,55.90
2016-09-04T10:21:28.052Z,56.00
2016-09-04T10:22:29.042Z,56.10
2016-09-04T10:23:33.016Z,56.00
2016-09-04T10:24:28.867Z,56.10
2016-09-04T10:25:32.884Z,56.00
2016-09-04T10:26:34.457Z,56.00
2016-09-04T10:27:36.565Z,55.90
2016-09-04T10:28:31.947Z,56.00
2016-09-04T10:29:43.924Z,55.90
2016-09-04T10:30:33.306Z,56.20
2016-09-04T10:31:29.572Z,56.20
2016-09-04T10:32:26.073Z,56.20
2016-09-04T10:33:25.891Z,56.30
2016-09-04T10:34:22.702Z,56.20
2016-09-04T10:35:28.648Z,56.20
2016-09-04T10:36:32.762Z,56.20
2016-09-04T10:37:22.979Z,56.20
2016-09-04T10:38:34.255Z,56.20
2016-09-04T10:39:30.858Z,56.30
2016-09-04T10:40:28.901Z,55.70
2016-09-04T10:41:29.654Z,55.30
2016-09-04T10:42:32.508Z,is
2016-09-04T10:43:35.214Z,54.70
2016-09-04T10:44:32.003Z,54.20
2016-09-04T10:45:29.629Z,54.70
2016-09-04T10:46:33.940Z,54.10
2016-09-04T10:47:27.973Z,54.40
2016-09-04T10:48:31.606Z,54.30
2016-09-04T10:49:33.903Z,54.20
2016-09-04T10:50:33.095Z,54.10
2016-09-04T10:51:25.794Z,54.20
2016-09-04T10:52:32.389Z,54.20
2016-09-04T10:53:28.451Z,54.20
2016-09-04T10:54:30.198Z,54.20
2016-09-04T10:55:27.696Z,54.20
2016-09-04T10:56:31.569Z,54.30
2016-09-04T10:57:29.534Z,53.90
2016-09-04T10:58:37.732Z,54.30
2016-09-04T10:59:29.014Z,53.60
2016-09-04T11:00:32.210Z,53.20
2016-09-04T11:01:28.609Z,53.30
2016-09-04T11:02:44.571Z,53.20
2016-09-04T11:03:33.145Z,53.50
2016-09-04T11:04:33.698Z,53.20
2016-09-04T11:05:33.207Z,53.20
2016-09-04T11:06:33.747Z,53.20
2016-09-04T11:07:28.752Z,53.20
2016-09-04T11:08:37.323Z,is
2016-09-04T11:09:28.391Z,53.10
2016-09-04T11:10:31.331Z,53.20
2016-09-04T11:11:32.261Z,53.40
2016-09-04T11:12:34.199Z,53.40
2016-09-04T11:13:32.018Z,53.60
2016-09-04T11:14:27.744Z,54.10
2016-09-04T11:15:29.184Z,54.20
2016-09-04T11:16:26.348Z,54.20
2016-09-04T11:17:26.154Z,54.10
2016-09-04T11:18:29.144Z,54.30
2016-09-04T11:19:33.221Z,54.20
2016-09-04T11:20:29.274Z,53.20
2016-09-04T11:21:28.463Z,52.80
2016-09-04T11:22:29.251Z,52.20
2016-09-04T11:23:46.222Z,51.80
2016-09-04T11:24:30.906Z,51.70
2016-09-04T11:25:26.434Z,51.50
2016-09-04T11:26:29.010Z,51.30
2016-09-04T11:27:27.506Z,50.20
2016-09-04T11:28:29.960Z,50.40
2016-09-04T11:29:34.155Z,50.00
2016-09-04T11:30:29.340Z,49.50
2016-09-04T11:31:28.651Z,49.50
2016-09-04T11:32:21.012Z,49.80
2016-09-04T11:33:30.853Z,49.70
2016-09-04T11:34:28.469Z,49.70
2016-09-04T11:35:33.023Z,50.10
2016-09-04T11:36:26.120Z,50.20
2016-09-04T11:37:33.098Z,50.60
2016-09-04T11:38:33.360Z,50.40
2016-09-04T11:39:51.620Z,50.40
2016-09-04T11:40:35.634Z,50.70
2016-09-04T11:41:37.302Z,50.90
2016-09-04T11:42:29.306Z,51.00
2016-09-04T11:43:29.786Z,51.20
2016-09-04T11:44:29.167Z,51.20
2016-09-04T11:45:31.451Z,51.20
2016-09-04T11:46:27.449Z,51.60
2016-09-04T11:47:34.301Z,51.60
2016-09-04T11:48:26.218Z,51.80
2016-09-04T11:49:33.496Z,51.70
2016-09-04T11:50:28.966Z,51.90
2016-09-04T11:51:49.513Z,51.90
2016-09-04T11:52:37.447Z,52.10
2016-09-04T11:53:33.196Z,52.00
2016-09-04T11:54:28.755Z,51.90
2016-09-04T11:55:39.105Z,52.10
2016-09-04T11:56:28.491Z,52.30
2016-09-04T11:57:33.467Z,52.40
2016-09-04T11:58:22.602Z,52.40
2016-09-04T11:59:29.593Z,52.50
2016-09-04T12:00:45.320Z,is
2016-09-04T12:01:28.483Z,52.70
2016-09-04T12:02:31.708Z,52.70
2016-09-04T12:03:26.110Z,52.90
2016-09-04T12:04:34.471Z,53.10
2016-09-04T12:05:29.128Z,53.10
2016-09-04T12:06:33.328Z,53.00
2016-09-04T12:07:29.659Z,53.20
2016-09-04T12:08:31.452Z,53.20
2016-09-04T12:09:29.117Z,53.30
2016-09-04T12:10:35.178Z,53.30
2016-09-04T12:11:33.480Z,53.40
2016-09-04T12:12:33.330Z,53.50
2016-09-04T12:13:28.956Z,53.50
2016-09-04T12:14:13.590Z,53.60
2016-09-04T12:15:33.116Z,53.60
2016-09-04T12:16:22.873Z,is
2016-09-04T12:17:28.603Z,53.70
2016-09-04T12:18:19.008Z,53.80
2016-09-04T12:19:27.810Z,53.70
2016-09-04T12:20:29.083Z,53.70
2016-09-04T12:21:33.418Z,53.90
2016-09-04T12:22:33.338Z,53.90
2016-09-04T12:23:38.346Z,53.80
2016-09-04T12:24:37.693Z,53.90
2016-09-04T12:25:20.647Z,54.10
2016-09-04T12:26:21.837Z,53.90
2016-09-04T12:27:32.805Z,54.20
2016-09-04T12:28:26.390Z,54.00
2016-09-04T12:29:26.470Z,53.90
2016-09-04T12:30:29.264Z,53.90
2016-09-04T12:31:29.082Z,53.90
2016-09-04T12:32:46.830Z,53.90
2016-09-04T12:33:34.917Z,54.00
2016-09-04T12:34:46.461Z,54.00
2016-09-04T12:35:51.198Z,53.90
2016-09-04T12:36:38.078Z,53.90
2016-09-04T12:37:38.710Z,54.00
2016-09-04T12:38:32.161Z,54.00
2016-09-04T12:39:26.237Z,54.00
2016-09-04T12:40:33.509Z,53.90
2016-09-04T12:41:40.237Z,53.90
2016-09-04T12:42:41.533Z,53.90
2016-09-04T12:43:45.751Z,53.90
2016-09-04T12:44:28.486Z,54.00
2016-09-04T12:45:45.059Z,54.00
2016-09-04T12:46:33.048Z,53.90
2016-09-04T12:47:28.897Z,53.90
2016-09-04T12:48:31.065Z,54.00
2016-09-04T12:49:37.369Z,53.90
2016-09-04T12:50:31.639Z,is
2016-09-04T12:51:28.878Z,53.90
2016-09-04T12:52:37.642Z,54.00
2016-09-04T12:53:27.528Z,53.90
2016-09-04T12:54:27.086Z,54.00
2016-09-04T12:55:32.888Z,53.90